createdAt,value
2019-02-20T17:47:16.607Z,9.88
2019-02-20T17:48:16.226Z,9.86
2019-02-20T17:49:16.216Z,9.96
2019-02-20T17:50:16.267Z,9.86
2019-02-20T17:51:16.200Z,9.81
2019-02-20T17:52:16.187Z,9.77
2019-02-20T17:53:16.185Z,9.67
2019-02-20T17:54:17.232Z,9.53
2019-02-20T17:55:16.152Z,9.34
2019-02-20T17:56:16.140Z,9.08
2019-02-20T17:57:16.139Z,9.03
2019-02-20T17:58:16.131Z,8.89
2019-02-20T17:59:16.108Z,8.79
2019-02-20T18:00:16.110Z,8.67
2019-02-20T18:01:16.086Z,8.79
2019-02-20T18:02:16.080Z,8.98
2019-02-20T18:03:16.078Z,9.23
2019-02-20T18:04:16.055Z,9.44
2019-02-20T18:05:16.046Z,9.53
2019-02-20T18:06:16.036Z,9.50
2019-02-20T18:07:17.204Z,9.62
2019-02-20T18:08:16.024Z,9.65
2019-02-20T18:09:16.003Z,9.70
2019-02-20T18:10:15.992Z,9.71
2019-02-20T18:11:15.986Z,9.83
2019-02-20T18:12:15.971Z,9.80
2019-02-20T18:13:15.974Z,9.91
2019-02-20T18:14:15.950Z,9.70
2019-02-20T18:15:15.948Z,9.86
2019-02-20T18:16:15.925Z,9.73
2019-02-20T18:17:15.919Z,9.86
2019-02-20T18:18:15.916Z,9.77
2019-02-20T18:19:15.950Z,9.86
2019-02-20T18:20:15.882Z,9.73
2019-02-20T18:21:15.879Z,9.73
2019-02-20T18:22:15.862Z,9.77
2019-02-20T18:23:15.861Z,9.67
2019-02-20T18:24:15.846Z,9.59
2019-02-20T18:25:15.827Z,9.73
2019-02-20T18:26:15.816Z,9.73
2019-02-20T18:27:15.811Z,9.67
2019-02-20T18:28:24.127Z,9.65
2019-02-20T18:29:16.788Z,9.62
2019-02-20T18:30:15.775Z,9.67
2019-02-20T18:31:15.767Z,9.45
2019-02-20T18:32:15.757Z,9.45
2019-02-20T18:33:15.757Z,9.45
2019-02-20T18:34:15.733Z,9.45
2019-02-20T18:35:15.727Z,9.44
2019-02-20T18:36:15.715Z,9.37
2019-02-20T18:37:15.700Z,9.35
2019-02-20T18:38:15.711Z,9.30
2019-02-20T18:39:15.688Z,9.32
2019-02-20T18:40:15.679Z,9.32
2019-02-20T18:41:15.655Z,9.31
2019-02-20T18:42:15.652Z,9.32
2019-02-20T18:43:15.670Z,9.52
2019-02-20T18:44:15.636Z,9.38
2019-02-20T18:45:15.628Z,9.48
2019-02-20T18:46:15.601Z,9.44
2019-02-20T18:47:15.593Z,9.49
2019-02-20T18:48:15.605Z,9.42
2019-02-20T18:49:15.580Z,9.37
2019-02-20T18:50:15.587Z,9.35
2019-02-20T18:51:15.548Z,9.50
2019-02-20T18:52:15.539Z,9.34
2019-02-20T18:53:15.561Z,9.26
2019-02-20T18:54:15.527Z,9.16
2019-02-20T18:55:15.508Z,9.08
2019-02-20T18:56:15.492Z,9.08
2019-02-20T18:57:15.487Z,9.08
2019-02-20T18:58:15.491Z,9.03
2019-02-20T18:59:15.461Z,8.98
2019-02-20T19:00:15.449Z,8.96
2019-02-20T19:01:15.451Z,8.88
2019-02-20T19:02:15.447Z,8.76
2019-02-20T19:03:15.447Z,8.70
2019-02-20T19:04:15.410Z,8.60
2019-02-20T19:05:15.400Z,8.58
2019-02-20T19:06:15.402Z,8.58
2019-02-20T19:07:15.384Z,8.46
2019-02-20T19:08:15.374Z,8.42
2019-02-20T19:09:15.374Z,8.39
2019-02-20T19:10:15.380Z,8.46
2019-02-20T19:11:15.344Z,8.45
2019-02-20T19:12:15.322Z,8.32
2019-02-20T19:13:15.363Z,8.31
2019-02-20T19:14:15.338Z,8.29
2019-02-20T19:15:15.297Z,8.29
2019-02-20T19:16:15.298Z,8.31
2019-02-20T19:17:15.273Z,8.24
2019-02-20T19:18:15.330Z,8.17
2019-02-20T19:19:15.266Z,8.31
2019-02-20T19:20:15.257Z,8.27
2019-02-20T19:21:15.258Z,8.24
2019-02-20T19:22:15.255Z,8.29
2019-02-20T19:23:15.206Z,8.27
2019-02-20T19:24:15.219Z,8.28
2019-02-20T19:25:15.190Z,8.32
2019-02-20T19:26:15.171Z,8.31
2019-02-20T19:27:15.162Z,8.29
2019-02-20T19:28:15.679Z,8.28
2019-02-20T19:29:15.169Z,8.39
2019-02-20T19:30:15.148Z,8.36
2019-02-20T19:31:15.122Z,8.31
2019-02-20T19:32:15.121Z,8.25
2019-02-20T19:33:15.147Z,8.29
2019-02-20T19:34:15.129Z,8.24
2019-02-20T19:35:15.091Z,8.24
2019-02-20T19:36:15.086Z,8.22
2019-02-20T19:37:15.143Z,8.22
2019-02-20T19:38:15.047Z,8.10
2019-02-20T19:39:15.106Z,8.12
2019-02-20T19:40:15.045Z,8.06
2019-02-20T19:41:15.017Z,8.12
2019-02-20T19:42:15.029Z,8.03
2019-02-20T19:43:14.993Z,8.02
2019-02-20T19:44:15.093Z,7.92
2019-02-20T19:45:14.980Z,7.92
2019-02-20T19:46:16.389Z,7.92
2019-02-20T19:47:14.951Z,7.88
2019-02-20T19:48:14.943Z,7.84
2019-02-20T19:49:14.961Z,7.85
2019-02-20T19:50:14.937Z,7.82
2019-02-20T19:51:14.942Z,7.85
2019-02-20T19:52:14.929Z,7.88
2019-02-20T19:53:14.886Z,7.95
2019-02-20T19:54:14.889Z,7.82
2019-02-20T19:55:14.891Z,7.86
2019-02-20T19:56:14.871Z,7.73
2019-02-20T19:57:14.864Z,7.71
2019-02-20T19:58:14.836Z,7.79
2019-02-20T19:59:14.867Z,7.85
2019-02-20T20:00:14.839Z,7.74
2019-02-20T20:01:15.322Z,7.82
2019-02-20T20:02:14.788Z,7.79
2019-02-20T20:03:14.800Z,7.81
2019-02-20T20:04:14.803Z,7.82
2019-02-20T20:05:14.774Z,7.85
2019-02-20T20:06:14.745Z,7.82
2019-02-20T20:07:14.768Z,7.85
2019-02-20T20:08:14.756Z,7.88
2019-02-20T20:09:14.762Z,7.81
2019-02-20T20:10:14.722Z,7.82
2019-02-20T20:11:14.726Z,7.81
2019-02-20T20:12:14.686Z,7.77
2019-02-20T20:13:14.673Z,7.79
2019-02-20T20:14:14.674Z,7.85
2019-02-20T20:15:14.893Z,7.77
2019-02-20T20:16:14.652Z,7.74
2019-02-20T20:17:14.701Z,7.71
2019-02-20T20:18:14.622Z,7.76
2019-02-20T20:19:14.656Z,7.60
2019-02-20T20:20:14.599Z,7.63
2019-02-20T20:21:14.618Z,7.63
2019-02-20T20:22:14.575Z,7.70
2019-02-20T20:23:14.575Z,7.57
2019-02-20T20:24:14.565Z,7.63
2019-02-20T20:25:14.544Z,7.60
2019-02-20T20:26:14.532Z,7.55
2019-02-20T20:27:14.533Z,7.48
2019-02-20T20:28:14.527Z,7.50
2019-02-20T20:29:14.516Z,7.41
2019-02-20T20:30:14.495Z,7.52
2019-02-20T20:31:14.484Z,7.51
2019-02-20T20:32:14.502Z,7.39
2019-02-20T20:33:14.494Z,7.50
2019-02-20T20:34:14.501Z,7.39
2019-02-20T20:35:15.698Z,7.47
2019-02-20T20:36:14.499Z,7.45
2019-02-20T20:37:14.702Z,7.50
2019-02-20T20:38:14.407Z,7.41
2019-02-20T20:39:14.510Z,7.52
2019-02-20T20:40:14.399Z,7.34
2019-02-20T20:41:14.376Z,7.41
2019-02-20T20:42:14.366Z,7.44
2019-02-20T20:43:14.352Z,7.34
2019-02-20T20:44:14.344Z,7.37
2019-02-20T20:45:14.382Z,7.42
2019-02-20T20:46:14.325Z,7.39
2019-02-20T20:47:14.311Z,7.44
2019-02-20T20:48:14.303Z,7.29
2019-02-20T20:49:14.294Z,7.32
2019-02-20T20:50:14.294Z,7.26
2019-02-20T20:51:14.284Z,7.26
2019-02-20T20:52:14.257Z,7.27
2019-02-20T20:53:14.245Z,7.23
2019-02-20T20:54:14.235Z,7.14
2019-02-20T20:55:14.251Z,7.29
2019-02-20T20:56:14.212Z,7.27
2019-02-20T20:57:14.217Z,7.29
2019-02-20T20:58:14.197Z,7.24
2019-02-20T20:59:17.708Z,7.23
2019-02-20T21:00:14.185Z,7.21
2019-02-20T21:01:14.168Z,7.30
2019-02-20T21:02:14.173Z,7.15
2019-02-20T21:03:14.138Z,7.19
2019-02-20T21:04:14.346Z,7.12
2019-02-20T21:05:14.134Z,7.16
2019-02-20T21:06:14.114Z,7.23
2019-02-20T21:07:14.100Z,7.19
2019-02-20T21:08:14.091Z,7.19
2019-02-20T21:09:14.077Z,7.23
2019-02-20T21:10:14.078Z,7.16
2019-02-20T21:11:14.055Z,7.11
2019-02-20T21:12:14.047Z,7.00
2019-02-20T21:13:14.033Z,7.07
2019-02-20T21:14:14.050Z,6.97
2019-02-20T21:15:14.027Z,7.01
2019-02-20T21:16:14.000Z,6.94
2019-02-20T21:17:15.937Z,7.04
2019-02-20T21:18:13.981Z,6.93
2019-02-20T21:19:21.223Z,6.97
2019-02-20T21:20:14.973Z,7.05
2019-02-20T21:21:14.002Z,7.01
2019-02-20T21:22:13.942Z,6.96
2019-02-20T21:23:13.963Z,7.00
2019-02-20T21:24:13.914Z,6.94
2019-02-20T21:25:14.607Z,7.01
2019-02-20T21:26:13.895Z,6.91
2019-02-20T21:27:13.884Z,6.82
2019-02-20T21:28:13.873Z,6.82
2019-02-20T21:29:13.911Z,6.91
2019-02-20T21:30:13.884Z,6.79
2019-02-20T21:31:13.844Z,6.99
2019-02-20T21:32:13.845Z,6.89
2019-02-20T21:33:13.834Z,6.90
2019-02-20T21:34:13.813Z,6.76
2019-02-20T21:35:13.804Z,6.72
2019-02-20T21:36:13.829Z,6.64
2019-02-20T21:37:13.781Z,6.69
2019-02-20T21:38:13.772Z,6.54
2019-02-20T21:39:13.762Z,6.60
2019-02-20T21:40:13.748Z,6.48
2019-02-20T21:41:13.747Z,6.50
2019-02-20T21:42:13.726Z,6.36
2019-02-20T21:43:13.730Z,6.38
2019-02-20T21:44:13.712Z,6.36
2019-02-20T21:45:13.697Z,6.33
2019-02-20T21:46:13.699Z,6.38
2019-02-20T21:47:13.680Z,6.43
2019-02-20T21:48:15.350Z,6.35
2019-02-20T21:49:15.176Z,6.39
2019-02-20T21:50:13.810Z,6.27
2019-02-20T21:51:13.645Z,6.39
2019-02-20T21:52:13.751Z,6.48
2019-02-20T21:53:13.611Z,6.38
2019-02-20T21:54:13.604Z,6.45
2019-02-20T21:55:13.590Z,6.48
2019-02-20T21:56:13.722Z,6.45
2019-02-20T21:57:13.648Z,6.50
2019-02-20T21:58:13.731Z,6.54
2019-02-20T21:59:13.633Z,6.54
2019-02-20T22:00:13.566Z,6.46
2019-02-20T22:01:13.540Z,6.48
2019-02-20T22:02:13.515Z,6.48
2019-02-20T22:03:13.712Z,6.53
2019-02-20T22:04:13.509Z,6.50
2019-02-20T22:05:13.514Z,6.42
2019-02-20T22:06:13.497Z,6.51
2019-02-20T22:07:13.483Z,6.51
2019-02-20T22:08:13.455Z,6.43
2019-02-20T22:09:13.442Z,6.36
2019-02-20T22:10:13.435Z,6.24
2019-02-20T22:11:13.424Z,6.25
2019-02-20T22:12:13.560Z,6.16
2019-02-20T22:13:13.392Z,6.13
2019-02-20T22:14:13.382Z,6.11
2019-02-20T22:15:14.768Z,6.24
2019-02-20T22:16:13.400Z,6.16
2019-02-20T22:17:13.349Z,6.17
2019-02-20T22:18:13.342Z,6.17
2019-02-20T22:19:13.329Z,6.10
2019-02-20T22:20:13.319Z,6.24
2019-02-20T22:21:13.310Z,6.20
2019-02-20T22:22:13.308Z,6.20
2019-02-20T22:23:13.287Z,6.13
2019-02-20T22:24:13.282Z,6.19
2019-02-20T22:25:13.284Z,6.14
2019-02-20T22:26:13.255Z,6.06
2019-02-20T22:27:13.256Z,5.96
2019-02-20T22:28:13.234Z,6.01
2019-02-20T22:29:13.220Z,5.99
2019-02-20T22:30:13.214Z,5.99
2019-02-20T22:31:13.258Z,5.98
2019-02-20T22:32:13.200Z,5.96
2019-02-20T22:33:13.181Z,6.02
2019-02-20T22:34:13.172Z,6.06
2019-02-20T22:35:13.171Z,6.01
2019-02-20T22:36:13.147Z,6.02
2019-02-20T22:37:13.152Z,6.02
2019-02-20T22:38:14.978Z,6.03
2019-02-20T22:39:13.126Z,6.03
2019-02-20T22:40:13.141Z,6.11
2019-02-20T22:41:13.093Z,5.99
2019-02-20T22:42:13.101Z,6.13
2019-02-20T22:43:13.074Z,5.98
2019-02-20T22:44:13.116Z,6.06
2019-02-20T22:45:13.079Z,6.20
2019-02-20T22:46:13.043Z,6.14
2019-02-20T22:47:13.046Z,6.05
2019-02-20T22:48:13.023Z,6.02
2019-02-20T22:49:13.009Z,5.99
2019-02-20T22:50:14.738Z,6.05
2019-02-20T22:51:12.989Z,6.03
2019-02-20T22:52:13.023Z,5.99
2019-02-20T22:53:12.968Z,5.99
2019-02-20T22:54:12.960Z,6.03
2019-02-20T22:55:12.951Z,6.01
2019-02-20T22:56:12.941Z,5.99
2019-02-20T22:57:12.929Z,5.99
2019-02-20T22:58:12.937Z,6.02
2019-02-20T22:59:12.904Z,5.98
2019-02-20T23:00:12.902Z,6.11
2019-02-20T23:01:12.885Z,6.11
2019-02-20T23:02:12.884Z,5.98
2019-02-20T23:03:12.882Z,6.05
2019-02-20T23:04:12.868Z,6.03
2019-02-20T23:05:12.845Z,6.03
2019-02-20T23:06:12.831Z,5.90
2019-02-20T23:07:12.829Z,6.01
2019-02-20T23:08:12.839Z,5.99
2019-02-20T23:09:12.808Z,6.03
2019-02-20T23:10:12.789Z,5.99
2019-02-20T23:11:12.777Z,5.93
2019-02-20T23:12:12.783Z,5.90
2019-02-20T23:13:12.776Z,5.80
2019-02-20T23:14:12.762Z,5.87
2019-02-20T23:15:12.739Z,5.85
2019-02-20T23:16:12.766Z,5.96
2019-02-20T23:17:12.714Z,5.95
2019-02-20T23:18:12.724Z,5.90
2019-02-20T23:19:12.700Z,5.92
2019-02-20T23:20:12.684Z,5.93
2019-02-20T23:21:12.673Z,5.92
2019-02-20T23:22:12.722Z,5.90
2019-02-20T23:23:12.674Z,5.96
2019-02-20T23:24:12.658Z,5.84
2019-02-20T23:25:12.640Z,5.78
2019-02-20T23:26:12.643Z,5.81
2019-02-20T23:27:12.625Z,5.92
2019-02-20T23:28:12.625Z,5.92
2019-02-20T23:29:12.613Z,5.88
2019-02-20T23:30:13.343Z,5.93
2019-02-20T23:31:12.581Z,5.92
2019-02-20T23:32:12.582Z,5.95
2019-02-20T23:33:12.579Z,5.83
2019-02-20T23:34:12.549Z,5.83
2019-02-20T23:35:12.540Z,5.77
2019-02-20T23:36:13.868Z,5.83
2019-02-20T23:37:34.551Z,5.83
2019-02-20T23:38:12.505Z,5.81
2019-02-20T23:39:12.483Z,5.77
2019-02-20T23:40:12.473Z,5.73
2019-02-20T23:41:12.464Z,5.69
2019-02-20T23:42:12.459Z,5.81
2019-02-20T23:43:12.457Z,5.80
2019-02-20T23:44:12.431Z,5.77
2019-02-20T23:45:12.427Z,5.78
2019-02-20T23:46:12.417Z,5.83
2019-02-20T23:47:12.410Z,5.75
2019-02-20T23:48:12.479Z,5.74
2019-02-20T23:49:12.380Z,5.77
2019-02-20T23:50:12.385Z,5.74
2019-02-20T23:51:12.370Z,5.75
2019-02-20T23:52:12.351Z,5.80
2019-02-20T23:53:12.340Z,5.85
2019-02-20T23:54:12.349Z,5.78
2019-02-20T23:55:12.322Z,5.78
2019-02-20T23:56:12.307Z,5.87
2019-02-20T23:57:12.314Z,5.96
2019-02-20T23:58:12.357Z,5.87
2019-02-20T23:59:13.930Z,5.78
